createdAt,value
2022-11-14T00:02:35.229Z,15.30
2022-11-14T00:05:21.140Z,12.48
2022-11-14T00:08:06.489Z,13.40
2022-11-14T00:10:51.992Z,15.65
2022-11-14T00:13:37.034Z,12.25
2022-11-14T00:16:21.947Z,12.10
2022-11-14T00:19:06.839Z,13.02
2022-11-14T00:21:53.323Z,16.48
2022-11-14T00:24:38.391Z,13.07
2022-11-14T00:27:23.320Z,11.80
2022-11-14T00:30:08.913Z,14.32
2022-11-14T00:32:54.085Z,12.07
2022-11-14T00:35:38.878Z,17.38
2022-11-14T00:38:24.056Z,13.07
2022-11-14T00:41:09.199Z,15.27
2022-11-14T00:43:54.240Z,12.38
2022-11-14T00:46:39.118Z,12.63
2022-11-14T00:49:24.198Z,12.82
2022-11-14T00:52:09.332Z,12.57
2022-11-14T00:54:54.620Z,11.02
2022-11-14T00:57:39.740Z,12.43
2022-11-14T01:00:24.705Z,12.85
2022-11-14T01:03:09.566Z,12.15
2022-11-14T01:05:54.433Z,12.15
2022-11-14T01:08:39.420Z,11.68
2022-11-14T01:11:24.494Z,13.20
2022-11-14T01:14:09.812Z,11.30
2022-11-14T01:16:54.612Z,11.77
2022-11-14T01:19:39.559Z,12.55
2022-11-14T01:22:24.575Z,12.02
2022-11-14T01:25:09.553Z,13.43
2022-11-14T01:27:54.567Z,11.88
2022-11-14T01:30:40.129Z,13.27
2022-11-14T01:33:25.301Z,11.80
2022-11-14T01:36:10.995Z,11.82
2022-11-14T01:38:55.959Z,16.55
2022-11-14T01:41:40.845Z,13.25
2022-11-14T01:44:48.230Z,11.43
2022-11-14T01:47:33.976Z,13.18
2022-11-14T01:50:19.152Z,14.65
2022-11-14T01:53:04.251Z,12.32
2022-11-14T01:55:50.091Z,11.75
2022-11-14T01:58:38.571Z,13.80
2022-11-14T02:01:25.795Z,12.63
2022-11-14T02:04:15.260Z,13.82
2022-11-14T02:07:03.369Z,12.25
2022-11-14T02:09:49.418Z,13.77
2022-11-14T02:12:34.688Z,14.88
2022-11-14T02:15:19.860Z,15.55
2022-11-14T02:18:04.968Z,15.95
2022-11-14T02:20:49.846Z,13.65
2022-11-14T02:23:34.739Z,13.88
2022-11-14T02:26:21.160Z,14.70
2022-11-14T02:29:07.788Z,14.82
2022-11-14T02:31:52.913Z,15.05
2022-11-14T02:34:38.554Z,14.50
2022-11-14T02:37:23.687Z,15.57
2022-11-14T02:40:09.364Z,15.05
2022-11-14T02:42:54.600Z,17.52
2022-11-14T02:45:39.529Z,15.02
2022-11-14T02:48:24.383Z,15.10
2022-11-14T02:51:09.257Z,17.60
2022-11-14T02:53:54.372Z,15.75
2022-11-14T02:56:39.208Z,15.60
2022-11-14T02:59:24.029Z,14.90
2022-11-14T03:02:08.945Z,14.60
2022-11-14T03:04:54.000Z,16.45
2022-11-14T03:07:39.204Z,16.17
2022-11-14T03:10:24.540Z,13.80
2022-11-14T03:13:09.521Z,17.00
2022-11-14T03:15:54.419Z,16.30
2022-11-14T03:18:39.303Z,17.88
2022-11-14T03:21:24.232Z,16.65
2022-11-14T03:24:09.120Z,17.98
2022-11-14T03:26:54.008Z,16.45
2022-11-14T03:29:38.795Z,16.05
2022-11-14T03:32:23.734Z,16.25
2022-11-14T03:35:09.199Z,14.85
2022-11-14T03:37:56.645Z,16.20
2022-11-14T03:40:42.670Z,15.60
2022-11-14T03:43:31.399Z,16.58
2022-11-14T03:46:16.704Z,17.00
2022-11-14T03:49:02.307Z,15.52
2022-11-14T03:51:48.085Z,16.38
2022-11-14T03:54:33.368Z,17.65
2022-11-14T03:57:18.139Z,19.33
2022-11-14T04:00:03.911Z,17.23
2022-11-14T04:02:48.828Z,20.50
2022-11-14T04:05:33.800Z,18.25
2022-11-14T04:08:18.669Z,18.35
2022-11-14T04:11:03.492Z,21.38
2022-11-14T04:13:48.382Z,18.70
2022-11-14T04:16:33.397Z,19.13
2022-11-14T04:19:18.298Z,22.75
2022-11-14T04:22:03.588Z,20.05
2022-11-14T04:24:48.817Z,25.20
2022-11-14T04:27:34.523Z,19.33
2022-11-14T04:30:19.333Z,22.02
2022-11-14T04:33:04.406Z,21.85
2022-11-14T04:35:49.186Z,20.95
2022-11-14T04:38:34.024Z,18.60
2022-11-14T04:41:18.927Z,18.70
2022-11-14T04:44:04.016Z,19.85
2022-11-14T04:46:48.784Z,20.17
2022-11-14T04:49:33.755Z,23.95
2022-11-14T04:52:18.740Z,19.73
2022-11-14T04:55:03.980Z,17.55
2022-11-14T04:57:54.900Z,19.15
2022-11-14T05:00:40.089Z,22.42
2022-11-14T05:03:25.792Z,19.02
2022-11-14T05:06:11.117Z,18.92
2022-11-14T05:08:56.087Z,18.92
2022-11-14T05:11:41.197Z,18.85
2022-11-14T05:14:26.142Z,18.08
2022-11-14T05:17:11.107Z,23.55
2022-11-14T05:19:56.181Z,20.33
2022-11-14T05:22:41.051Z,20.38
2022-11-14T05:25:26.337Z,18.88
2022-11-14T05:28:11.454Z,19.88
2022-11-14T05:31:02.789Z,18.88
2022-11-14T05:33:48.030Z,20.45
2022-11-14T05:36:33.109Z,19.15
2022-11-14T05:39:18.159Z,21.52
2022-11-14T05:42:03.273Z,17.10
2022-11-14T05:44:48.460Z,18.73
2022-11-14T05:47:33.468Z,18.33
2022-11-14T05:50:18.303Z,20.90
2022-11-14T05:53:03.042Z,18.90
2022-11-14T05:55:47.986Z,19.52
2022-11-14T05:58:34.844Z,21.55
2022-11-14T06:01:20.333Z,19.95
2022-11-14T06:04:06.453Z,22.70
2022-11-14T06:06:51.531Z,20.40
2022-11-14T06:09:36.271Z,20.23
2022-11-14T06:12:21.207Z,20.17
2022-11-14T06:15:06.621Z,22.88
2022-11-14T06:17:54.936Z,20.52
2022-11-14T06:20:40.052Z,23.83
2022-11-14T06:23:25.207Z,21.88
2022-11-14T06:26:24.444Z,22.85
2022-11-14T06:29:10.143Z,20.65
2022-11-14T06:31:55.253Z,19.95
2022-11-14T06:34:40.166Z,18.58
2022-11-14T06:37:25.168Z,20.80
2022-11-14T06:40:10.777Z,22.95
2022-11-14T06:42:56.591Z,21.95
2022-11-14T06:45:41.885Z,21.70
2022-11-14T06:48:26.986Z,22.42
2022-11-14T06:51:13.211Z,21.48
2022-11-14T06:53:58.669Z,19.98
2022-11-14T06:56:43.735Z,22.73
2022-11-14T06:59:28.652Z,23.65
2022-11-14T07:02:20.489Z,22.30
2022-11-14T07:05:06.697Z,23.15
2022-11-14T07:07:51.898Z,23.35
2022-11-14T07:10:36.936Z,24.02
2022-11-14T07:13:21.872Z,27.92
2022-11-14T07:16:07.239Z,24.33
2022-11-14T07:18:52.379Z,23.17
2022-11-14T07:21:37.191Z,24.40
2022-11-14T07:24:22.030Z,21.83
2022-11-14T07:27:09.141Z,22.10
2022-11-14T07:29:54.288Z,23.70
2022-11-14T07:32:39.109Z,25.02
2022-11-14T07:35:24.914Z,19.75
2022-11-14T07:38:09.898Z,21.70
2022-11-14T07:41:00.528Z,21.00
2022-11-14T07:43:46.132Z,21.75
2022-11-14T07:46:30.991Z,20.38
2022-11-14T07:49:16.007Z,21.55
2022-11-14T07:52:01.069Z,23.05
2022-11-14T07:54:46.000Z,21.23
2022-11-14T07:57:35.454Z,24.65
2022-11-14T08:00:23.840Z,20.45
2022-11-14T08:03:09.162Z,20.50
2022-11-14T08:06:09.493Z,20.25
2022-11-14T08:08:54.505Z,19.50
2022-11-14T08:11:48.895Z,22.38
2022-11-14T08:14:34.393Z,20.50
2022-11-14T08:17:21.321Z,22.23
2022-11-14T08:20:08.319Z,16.73
2022-11-14T08:22:54.545Z,25.20
2022-11-14T08:25:39.929Z,22.52
2022-11-14T08:28:25.216Z,26.52
2022-11-14T08:31:10.771Z,29.25
2022-11-14T08:33:56.350Z,25.83
2022-11-14T08:36:41.205Z,28.75
2022-11-14T08:39:26.163Z,27.35
2022-11-14T08:42:11.042Z,29.45
2022-11-14T08:44:56.033Z,25.73
2022-11-14T08:47:40.961Z,28.63
2022-11-14T08:50:25.883Z,28.10
2022-11-14T08:53:11.524Z,25.48
2022-11-14T08:55:56.734Z,26.27
2022-11-14T08:58:42.002Z,24.25
2022-11-14T09:01:26.857Z,28.63
2022-11-14T09:04:12.136Z,26.63
2022-11-14T09:06:58.791Z,27.67
2022-11-14T09:09:43.590Z,29.23
2022-11-14T09:12:28.820Z,30.33
2022-11-14T09:15:13.948Z,29.70
2022-11-14T09:17:58.703Z,32.00
2022-11-14T09:20:43.497Z,28.98
2022-11-14T09:23:28.633Z,28.63
2022-11-14T09:26:16.217Z,27.40
2022-11-14T09:29:02.105Z,29.88
2022-11-14T09:31:47.324Z,27.10
2022-11-14T09:34:32.205Z,28.40
2022-11-14T09:37:17.311Z,31.48
2022-11-14T09:40:03.486Z,30.02
2022-11-14T09:43:07.304Z,32.75
2022-11-14T09:45:53.288Z,35.05
2022-11-14T09:48:38.541Z,29.90
2022-11-14T09:51:27.669Z,29.50
2022-11-14T09:54:29.208Z,30.15
2022-11-14T09:57:17.424Z,29.02
2022-11-14T10:00:23.071Z,31.17
2022-11-14T10:03:35.977Z,27.15
2022-11-14T10:06:25.336Z,28.35
2022-11-14T10:09:33.443Z,24.65
2022-11-14T10:12:26.880Z,23.73
2022-11-14T10:15:14.852Z,27.75
2022-11-14T10:18:31.160Z,25.92
2022-11-14T10:21:28.368Z,24.27
2022-11-14T10:24:29.841Z,29.08
2022-11-14T10:27:42.899Z,25.77
2022-11-14T10:30:39.488Z,25.75
2022-11-14T10:33:52.021Z,24.42
2022-11-14T10:36:55.933Z,24.45
2022-11-14T10:39:43.764Z,21.88
2022-11-14T10:42:38.319Z,20.90
2022-11-14T10:45:35.940Z,17.20
2022-11-14T10:48:30.442Z,16.65
2022-11-14T10:51:39.780Z,16.88
2022-11-14T10:54:37.170Z,17.80
2022-11-14T10:57:22.601Z,12.70
2022-11-14T11:00:19.556Z,15.20
2022-11-14T11:03:04.455Z,15.75
2022-11-14T11:05:52.059Z,12.63
2022-11-14T11:09:02.798Z,12.13
2022-11-14T11:11:59.418Z,12.02
2022-11-14T11:14:45.768Z,12.38
2022-11-14T11:17:37.071Z,13.50
2022-11-14T11:20:34.622Z,12.15
2022-11-14T11:23:25.375Z,12.88
2022-11-14T11:26:19.787Z,13.15
2022-11-14T11:29:06.578Z,14.20
2022-11-14T11:31:54.704Z,16.25
2022-11-14T11:34:40.370Z,11.80
2022-11-14T11:40:22.712Z,13.73
2022-11-14T11:46:42.992Z,14.02
2022-11-14T11:49:31.014Z,15.68
2022-11-14T11:52:44.175Z,15.27
2022-11-14T11:55:37.643Z,19.08
2022-11-14T11:58:27.988Z,17.15
2022-11-14T12:01:14.076Z,15.77
2022-11-14T12:04:00.668Z,15.00
2022-11-14T12:06:57.221Z,17.48
2022-11-14T12:10:09.268Z,14.75
2022-11-14T12:13:21.407Z,17.90
2022-11-14T12:16:19.536Z,16.98
2022-11-14T12:19:07.398Z,19.05
2022-11-14T12:22:03.724Z,18.17
2022-11-14T12:25:08.407Z,15.32
2022-11-14T12:28:13.668Z,14.98
2022-11-14T12:31:03.354Z,17.38
2022-11-14T12:33:55.914Z,15.45
2022-11-14T12:36:44.636Z,14.15
2022-11-14T12:39:31.523Z,16.70
2022-11-14T12:42:21.012Z,18.58
2022-11-14T12:45:41.247Z,16.98
2022-11-14T12:48:26.249Z,16.77
2022-11-14T12:51:29.349Z,18.25
2022-11-14T12:54:44.520Z,16.52
2022-11-14T12:58:01.586Z,18.13
2022-11-14T13:00:46.737Z,15.38
2022-11-14T13:03:40.725Z,18.90
2022-11-14T13:06:46.873Z,15.90
2022-11-14T13:09:54.486Z,18.40
2022-11-14T13:13:01.324Z,17.13
2022-11-14T13:16:13.451Z,18.25
2022-11-14T13:19:30.836Z,20.55
2022-11-14T13:22:15.967Z,18.20
2022-11-14T13:25:01.139Z,19.05
2022-11-14T13:28:07.944Z,16.70
2022-11-14T13:31:16.774Z,17.05
2022-11-14T13:34:37.489Z,14.20
2022-11-14T13:37:48.406Z,17.83
2022-11-14T13:40:39.878Z,15.38
2022-11-14T13:43:47.534Z,16.25
2022-11-14T13:46:54.315Z,18.35
2022-11-14T13:49:59.084Z,17.17
2022-11-14T13:52:47.545Z,18.27
2022-11-14T13:55:56.330Z,19.08
2022-11-14T13:59:17.036Z,16.40
2022-11-14T14:02:22.120Z,18.15
2022-11-14T14:05:20.893Z,17.20
2022-11-14T14:08:19.939Z,17.05
2022-11-14T14:11:23.724Z,20.40
2022-11-14T14:14:17.870Z,19.55
2022-11-14T14:17:35.540Z,19.23
2022-11-14T14:20:51.067Z,23.60
2022-11-14T14:23:55.064Z,20.50
2022-11-14T14:30:08.626Z,22.42
2022-11-14T14:33:11.963Z,18.58
2022-11-14T14:35:57.271Z,24.42
2022-11-14T14:38:42.225Z,20.83
2022-11-14T14:41:31.741Z,22.23
2022-11-14T14:44:22.886Z,20.48
2022-11-14T14:47:34.081Z,24.55
2022-11-14T14:50:22.332Z,18.65
2022-11-14T14:53:18.557Z,18.52
2022-11-14T14:56:18.331Z,19.77
2022-11-14T14:59:17.237Z,18.60
2022-11-14T15:02:02.517Z,21.15
2022-11-14T15:04:47.363Z,21.40
2022-11-14T15:07:32.906Z,19.50
2022-11-14T15:10:29.484Z,22.38
2022-11-14T15:13:16.028Z,40.40
2022-11-14T15:16:03.234Z,30.80
2022-11-14T15:18:50.491Z,27.85
2022-11-14T15:21:35.424Z,32.85
2022-11-14T15:24:23.903Z,26.63
2022-11-14T15:27:14.532Z,27.33
2022-11-14T15:30:06.141Z,24.70
2022-11-14T15:32:56.901Z,25.58
2022-11-14T15:35:42.228Z,27.15
2022-11-14T15:38:44.263Z,21.23
2022-11-14T15:41:31.723Z,30.38
2022-11-14T15:44:33.864Z,26.67
2022-11-14T15:47:39.443Z,25.90
2022-11-14T15:50:33.107Z,22.48
2022-11-14T15:53:23.549Z,21.17
2022-11-14T15:56:11.623Z,20.58
2022-11-14T15:58:56.733Z,24.73
2022-11-14T16:01:44.269Z,24.90
2022-11-14T16:04:44.397Z,23.42
2022-11-14T16:07:32.318Z,26.30
2022-11-14T16:10:23.238Z,24.08
2022-11-14T16:13:08.130Z,21.25
2022-11-14T16:15:53.071Z,22.95
2022-11-14T16:18:37.912Z,22.42
2022-11-14T16:21:22.794Z,20.48
2022-11-14T16:24:14.055Z,26.00
2022-11-14T16:26:58.991Z,23.98
2022-11-14T16:29:44.000Z,20.80
2022-11-14T16:32:28.864Z,20.85
2022-11-14T16:35:16.720Z,28.42
2022-11-14T16:38:01.982Z,23.55
2022-11-14T16:40:47.157Z,19.58
2022-11-14T16:43:32.305Z,18.48
2022-11-14T16:46:17.583Z,19.17
2022-11-14T16:49:02.891Z,19.98
2022-11-14T16:51:50.434Z,16.92
2022-11-14T16:54:35.510Z,20.67
2022-11-14T16:57:20.498Z,20.92
2022-11-14T17:00:08.222Z,20.65
2022-11-14T17:02:53.431Z,18.80
2022-11-14T17:05:46.146Z,20.65
2022-11-14T17:08:31.395Z,19.83
2022-11-14T17:11:16.344Z,21.40
2022-11-14T17:14:01.349Z,20.50
2022-11-14T17:16:46.668Z,25.25
2022-11-14T17:19:31.570Z,32.47
2022-11-14T17:22:17.757Z,23.15
2022-11-14T17:25:03.139Z,18.83
2022-11-14T17:27:48.925Z,24.30
2022-11-14T17:30:33.695Z,63.58
2022-11-14T17:33:18.582Z,74.93
2022-11-14T17:36:09.015Z,85.40
2022-11-14T17:38:54.161Z,44.67
2022-11-14T17:41:39.078Z,71.90
2022-11-14T17:44:23.942Z,66.85
2022-11-14T17:47:08.686Z,35.47
2022-11-14T17:49:53.852Z,25.17
2022-11-14T17:52:40.880Z,19.80
2022-11-14T17:55:26.048Z,19.58
2022-11-14T17:58:12.076Z,21.10
2022-11-14T18:01:00.831Z,20.67
2022-11-14T18:03:46.366Z,19.00
2022-11-14T18:06:33.296Z,19.77
2022-11-14T18:09:18.491Z,21.42
2022-11-14T18:12:03.559Z,17.48
2022-11-14T18:14:48.705Z,16.45
2022-11-14T18:17:33.570Z,18.25
2022-11-14T18:20:18.582Z,16.60
2022-11-14T18:23:03.807Z,17.05
2022-11-14T18:25:48.626Z,17.25
2022-11-14T18:28:33.719Z,17.90
2022-11-14T18:31:18.888Z,19.95
2022-11-14T18:34:03.884Z,19.42
2022-11-14T18:36:49.362Z,20.90
2022-11-14T18:39:34.451Z,21.08
2022-11-14T18:42:19.428Z,19.48
2022-11-14T18:45:04.747Z,19.98
2022-11-14T18:47:49.591Z,18.38
2022-11-14T18:50:34.664Z,19.05
2022-11-14T18:53:19.496Z,19.10
2022-11-14T18:56:06.284Z,23.45
2022-11-14T18:58:56.040Z,20.33
2022-11-14T19:01:41.194Z,20.73
2022-11-14T19:04:26.371Z,19.77
2022-11-14T19:07:11.423Z,17.25
2022-11-14T19:09:56.679Z,18.35
2022-11-14T19:12:42.625Z,14.73
2022-11-14T19:15:27.540Z,17.80
2022-11-14T19:18:12.458Z,17.45
2022-11-14T19:21:02.342Z,15.23
2022-11-14T19:23:47.384Z,16.17
2022-11-14T19:26:33.380Z,16.55
2022-11-14T19:29:18.466Z,17.92
2022-11-14T19:32:04.248Z,17.60
2022-11-14T19:34:49.697Z,16.77
2022-11-14T19:37:34.638Z,18.40
2022-11-14T19:40:19.924Z,17.27
2022-11-14T19:43:07.150Z,17.33
2022-11-14T19:45:51.994Z,17.05
2022-11-14T19:48:37.886Z,19.70
2022-11-14T19:51:23.016Z,18.13
2022-11-14T19:54:09.962Z,21.23
2022-11-14T19:56:55.107Z,17.15
2022-11-14T19:59:40.418Z,18.05
2022-11-14T20:02:25.785Z,20.20
2022-11-14T20:05:10.708Z,22.90
2022-11-14T20:07:57.164Z,22.08
2022-11-14T20:10:48.285Z,20.73
2022-11-14T20:13:36.501Z,21.58
2022-11-14T20:16:25.240Z,22.17
2022-11-14T20:19:10.121Z,19.55
2022-11-14T20:21:55.453Z,22.08
2022-11-14T20:24:40.484Z,20.40
2022-11-14T20:27:25.427Z,21.15
2022-11-14T20:30:10.585Z,25.50
2022-11-14T20:32:55.851Z,23.48
2022-11-14T20:35:40.674Z,22.23
2022-11-14T20:38:25.644Z,26.52
2022-11-14T20:41:12.324Z,23.38
2022-11-14T20:43:57.615Z,25.30
2022-11-14T20:46:42.543Z,21.77
2022-11-14T20:49:27.467Z,22.23
2022-11-14T20:52:12.368Z,22.08
2022-11-14T20:54:57.278Z,16.90
2022-11-14T20:57:42.202Z,20.02
2022-11-14T21:00:27.247Z,20.10
2022-11-14T21:03:12.312Z,15.02
2022-11-14T21:05:57.591Z,14.75
2022-11-14T21:08:43.290Z,14.85
2022-11-14T21:11:28.459Z,14.00
2022-11-14T21:14:13.438Z,16.23
2022-11-14T21:16:58.750Z,16.02
2022-11-14T21:19:43.565Z,15.73
2022-11-14T21:22:28.474Z,16.98
2022-11-14T21:25:13.547Z,14.75
2022-11-14T21:27:58.508Z,16.75
2022-11-14T21:30:43.572Z,14.27
2022-11-14T21:33:30.477Z,14.65
2022-11-14T21:39:23.339Z,15.60
2022-11-14T21:42:08.560Z,18.45
2022-11-14T21:44:53.638Z,16.20
2022-11-14T21:47:38.544Z,15.13
2022-11-14T21:50:23.615Z,15.10
2022-11-14T21:53:15.740Z,14.75
2022-11-14T21:56:16.790Z,14.27
2022-11-14T21:59:13.177Z,17.55
2022-11-14T22:02:17.556Z,16.33
2022-11-14T22:05:02.741Z,16.40
2022-11-14T22:07:47.730Z,18.23
2022-11-14T22:10:32.697Z,16.48
2022-11-14T22:13:18.178Z,14.85
2022-11-14T22:16:08.070Z,17.48
2022-11-14T22:18:54.004Z,15.80
2022-11-14T22:21:39.143Z,14.35
2022-11-14T22:24:24.132Z,13.77
2022-11-14T22:27:09.250Z,15.93
2022-11-14T22:29:54.295Z,13.10
2022-11-14T22:32:39.575Z,16.35
2022-11-14T22:35:24.431Z,15.07
2022-11-14T22:38:09.454Z,13.73
2022-11-14T22:40:56.235Z,13.88
2022-11-14T22:43:41.523Z,13.35
2022-11-14T22:46:27.156Z,13.88
2022-11-14T22:49:14.212Z,13.80
2022-11-14T22:52:02.402Z,12.88
2022-11-14T22:54:47.187Z,12.70
2022-11-14T22:57:32.314Z,14.43
2022-11-14T23:00:17.724Z,13.48
2022-11-14T23:03:02.626Z,12.88
2022-11-14T23:05:48.252Z,14.85
2022-11-14T23:08:34.148Z,14.55
2022-11-14T23:11:22.276Z,13.45
2022-11-14T23:14:07.629Z,15.32
2022-11-14T23:16:52.565Z,13.32
2022-11-14T23:19:37.884Z,12.52
2022-11-14T23:22:22.588Z,13.35
2022-11-14T23:25:08.006Z,12.95
2022-11-14T23:27:53.660Z,11.73
2022-11-14T23:30:38.756Z,16.48
2022-11-14T23:33:23.761Z,13.25
2022-11-14T23:36:08.890Z,13.95
2022-11-14T23:38:54.287Z,12.60
2022-11-14T23:41:39.297Z,11.30
2022-11-14T23:44:24.151Z,12.93
2022-11-14T23:47:09.162Z,12.93
2022-11-14T23:49:54.359Z,12.95
2022-11-14T23:52:39.308Z,12.30
2022-11-14T23:55:24.098Z,10.93
2022-11-14T23:58:09.158Z,13.95
